METAR Data

Data at: 2339 UTC 26 Feb 2020

METAR for:KTAN (Taunton Muni, MA, US)
Text:KTAN 262334Z AUTO VRB04KT 10SM OVC005 06/04 A2993 RMK AO2 T00610044
Temperature: 6.1°C ( 43°F)
Dewpoint: 4.4°C ( 40°F) [RH = 89%]
Pressure (altimeter):29.93 inches Hg (1013.6 mb)
Winds:variable direction winds at 5 MPH (4 knots; 2.1 m/s)
Visibility:10 or more sm (16+ km)
Ceiling:500 feet AGL
Clouds: overcast cloud deck at 500 feet AGL
QC Flag:automated observation with no human augmentation